createdAt,value
2023-01-18T00:00:28.026Z,4.66
2023-01-18T00:03:00.434Z,4.54
2023-01-18T00:05:29.930Z,4.49
2023-01-18T00:07:59.222Z,4.38
2023-01-18T00:10:28.573Z,4.34
2023-01-18T00:12:58.202Z,4.45
2023-01-18T00:15:27.867Z,4.59
2023-01-18T00:17:57.195Z,4.46
2023-01-18T00:20:29.371Z,4.47
2023-01-18T00:22:59.018Z,4.65
2023-01-18T00:25:29.730Z,4.68
2023-01-18T00:27:59.244Z,4.53
2023-01-18T00:30:29.158Z,4.58
2023-01-18T00:33:01.521Z,4.62
2023-01-18T00:35:33.520Z,4.69
2023-01-18T00:38:02.852Z,4.56
2023-01-18T00:40:32.133Z,4.42
2023-01-18T00:43:13.888Z,4.40
2023-01-18T00:45:43.870Z,4.35
2023-01-18T00:48:13.193Z,4.39
2023-01-18T00:50:45.106Z,4.43
2023-01-18T00:53:14.368Z,4.48
2023-01-18T00:55:43.641Z,4.35
2023-01-18T00:58:12.952Z,4.32
2023-01-18T01:00:42.389Z,4.44
2023-01-18T01:03:13.302Z,4.45
2023-01-18T01:05:57.691Z,4.46
2023-01-18T01:08:27.103Z,4.49
2023-01-18T01:10:56.566Z,4.41
2023-01-18T01:13:38.394Z,4.41
2023-01-18T01:16:20.780Z,4.40
2023-01-18T01:19:02.561Z,4.39
2023-01-18T01:21:46.916Z,4.23
2023-01-18T01:24:28.676Z,4.21
2023-01-18T01:27:00.504Z,4.26
2023-01-18T01:29:29.955Z,4.29
2023-01-18T01:31:59.212Z,4.31
2023-01-18T01:34:29.765Z,4.43
2023-01-18T01:37:01.704Z,4.49
2023-01-18T01:39:31.002Z,4.45
2023-01-18T01:42:00.276Z,4.47
2023-01-18T01:44:44.636Z,4.48
2023-01-18T01:47:14.605Z,4.46
2023-01-18T01:49:44.773Z,4.52
2023-01-18T01:52:17.752Z,4.50
2023-01-18T01:54:47.751Z,4.57
2023-01-18T01:57:18.037Z,4.59
2023-01-18T01:59:47.859Z,4.57
2023-01-18T02:02:17.160Z,4.44
2023-01-18T02:04:46.609Z,4.22
2023-01-18T02:07:18.513Z,4.00
2023-01-18T02:09:47.802Z,3.98
2023-01-18T02:12:17.108Z,4.08
2023-01-18T02:14:46.428Z,4.18
2023-01-18T02:17:19.450Z,4.17
2023-01-18T02:20:04.786Z,4.26
2023-01-18T02:22:41.337Z,4.24
2023-01-18T02:25:18.728Z,4.19
2023-01-18T02:27:48.697Z,4.13
2023-01-18T02:30:21.881Z,4.03
2023-01-18T02:32:53.787Z,3.96
2023-01-18T02:35:23.746Z,3.98
2023-01-18T02:37:54.869Z,4.01
2023-01-18T02:40:24.926Z,4.05
2023-01-18T02:43:06.647Z,4.02
2023-01-18T02:45:51.133Z,3.98
2023-01-18T02:48:20.866Z,4.02
2023-01-18T02:50:50.222Z,3.94
2023-01-18T02:53:19.587Z,3.89
2023-01-18T02:55:50.691Z,3.81
2023-01-18T02:58:21.938Z,3.93
2023-01-18T03:00:54.455Z,4.02
2023-01-18T03:03:23.840Z,3.96
2023-01-18T03:05:53.358Z,3.97
2023-01-18T03:08:23.603Z,3.90
2023-01-18T03:11:00.607Z,3.97
2023-01-18T03:13:32.580Z,4.11
2023-01-18T03:16:06.788Z,4.24
2023-01-18T03:18:37.852Z,4.28
2023-01-18T03:21:08.513Z,4.32
2023-01-18T03:23:39.865Z,4.15
2023-01-18T03:26:09.681Z,4.11
2023-01-18T03:28:52.198Z,4.08
2023-01-18T03:31:37.354Z,3.92
2023-01-18T03:34:09.848Z,4.05
2023-01-18T03:36:40.355Z,4.15
2023-01-18T03:39:10.325Z,4.17
2023-01-18T03:41:40.311Z,4.16
2023-01-18T03:44:10.533Z,4.15
2023-01-18T03:46:43.910Z,4.10
2023-01-18T03:49:13.317Z,4.14
2023-01-18T03:51:47.460Z,4.20
2023-01-18T03:54:18.138Z,3.96
2023-01-18T03:56:49.766Z,4.09
2023-01-18T03:59:19.190Z,4.11
2023-01-18T04:01:51.243Z,4.12
2023-01-18T04:04:20.526Z,4.10
2023-01-18T04:06:49.853Z,4.02
2023-01-18T04:09:19.100Z,4.06
2023-01-18T04:11:48.431Z,4.04
2023-01-18T04:14:17.900Z,4.00
2023-01-18T04:16:58.970Z,3.62
2023-01-18T04:19:28.406Z,3.71
2023-01-18T04:21:57.718Z,3.80
2023-01-18T04:24:27.026Z,3.82
2023-01-18T04:26:56.589Z,3.79
2023-01-18T04:29:25.923Z,3.66
2023-01-18T04:31:55.202Z,3.53
2023-01-18T04:34:27.272Z,3.44
2023-01-18T04:36:56.658Z,3.26
2023-01-18T04:39:25.955Z,3.25
2023-01-18T04:41:57.126Z,3.17
2023-01-18T04:44:26.629Z,3.18
2023-01-18T04:46:56.119Z,3.16
2023-01-18T04:49:28.167Z,3.31
2023-01-18T04:51:57.453Z,3.39
2023-01-18T04:54:26.752Z,3.30
2023-01-18T04:56:56.083Z,3.45
2023-01-18T04:59:25.447Z,3.44
2023-01-18T05:01:54.798Z,3.41
2023-01-18T05:04:24.128Z,3.36
2023-01-18T05:06:56.050Z,3.46
2023-01-18T05:09:25.400Z,3.48
2023-01-18T05:11:54.859Z,3.42
2023-01-18T05:14:24.197Z,3.44
2023-01-18T05:16:53.520Z,3.37
2023-01-18T05:19:22.885Z,3.39
2023-01-18T05:21:52.211Z,3.38
2023-01-18T05:24:29.593Z,3.22
2023-01-18T05:26:59.256Z,3.22
2023-01-18T05:29:28.557Z,3.33
2023-01-18T05:31:57.858Z,3.33
2023-01-18T05:34:27.315Z,3.27
2023-01-18T05:36:56.673Z,3.25
2023-01-18T05:39:28.638Z,3.25
2023-01-18T05:42:00.092Z,3.21
2023-01-18T05:44:29.686Z,3.17
2023-01-18T05:46:59.053Z,3.20
2023-01-18T05:49:28.445Z,3.29
2023-01-18T05:51:57.821Z,3.32
2023-01-18T05:54:29.769Z,3.26
2023-01-18T05:56:59.194Z,3.30
2023-01-18T05:59:31.178Z,3.38
2023-01-18T06:02:00.436Z,3.34
2023-01-18T06:04:29.769Z,3.38
2023-01-18T06:06:59.170Z,3.31
2023-01-18T06:09:31.804Z,3.29
2023-01-18T06:12:01.241Z,3.35
2023-01-18T06:14:30.545Z,3.29
2023-01-18T06:17:01.659Z,3.21
2023-01-18T06:19:31.035Z,3.32
2023-01-18T06:22:00.343Z,3.37
2023-01-18T06:24:32.817Z,3.27
2023-01-18T06:27:04.168Z,3.26
2023-01-18T06:29:33.743Z,3.30
2023-01-18T06:32:03.079Z,3.35
2023-01-18T06:34:33.237Z,3.32
2023-01-18T06:37:02.658Z,3.29
2023-01-18T06:39:35.331Z,3.23
2023-01-18T06:42:04.587Z,3.20
2023-01-18T06:44:33.881Z,3.22
2023-01-18T06:47:03.187Z,3.33
2023-01-18T06:49:32.507Z,3.41
2023-01-18T06:52:01.851Z,3.34
2023-01-18T06:54:31.225Z,3.38
2023-01-18T06:57:03.174Z,3.43
2023-01-18T06:59:32.515Z,3.29
2023-01-18T07:02:01.925Z,3.29
2023-01-18T07:04:34.723Z,3.35
2023-01-18T07:07:04.988Z,3.43
2023-01-18T07:09:34.265Z,3.30
2023-01-18T07:12:06.322Z,3.19
2023-01-18T07:14:35.631Z,3.13
2023-01-18T07:17:04.888Z,3.03
2023-01-18T07:19:34.273Z,3.07
2023-01-18T07:22:03.626Z,3.01
2023-01-18T07:24:32.889Z,3.09
2023-01-18T07:27:03.380Z,3.17
2023-01-18T07:29:35.333Z,3.10
2023-01-18T07:32:04.699Z,3.16
2023-01-18T07:34:34.042Z,3.24
2023-01-18T07:37:03.999Z,3.25
2023-01-18T07:39:33.309Z,3.33
2023-01-18T07:42:02.588Z,3.29
2023-01-18T07:44:32.726Z,3.32
2023-01-18T07:47:04.846Z,3.33
2023-01-18T07:49:34.148Z,3.28
2023-01-18T07:52:03.702Z,3.25
2023-01-18T07:54:33.010Z,3.21
2023-01-18T07:57:02.382Z,3.03
2023-01-18T07:59:33.603Z,3.02
2023-01-18T08:02:06.259Z,3.08
2023-01-18T08:04:35.594Z,3.09
2023-01-18T08:07:04.876Z,3.00
2023-01-18T08:09:34.819Z,3.12
2023-01-18T08:12:04.262Z,3.04
2023-01-18T08:14:33.560Z,3.09
2023-01-18T08:17:06.423Z,3.14
2023-01-18T08:19:35.903Z,3.23
2023-01-18T08:22:05.178Z,3.26
2023-01-18T08:24:36.725Z,3.34
2023-01-18T08:27:06.152Z,3.42
2023-01-18T08:29:35.662Z,3.32
2023-01-18T08:32:07.582Z,3.37
2023-01-18T08:34:36.901Z,3.52
2023-01-18T08:37:06.167Z,3.55
2023-01-18T08:39:35.746Z,3.47
2023-01-18T08:42:05.018Z,3.62
2023-01-18T08:44:34.283Z,3.71
2023-01-18T08:47:03.550Z,3.73
2023-01-18T08:49:35.895Z,3.71
2023-01-18T08:52:05.190Z,3.85
2023-01-18T08:54:34.445Z,3.94
2023-01-18T08:57:06.266Z,3.97
2023-01-18T08:59:35.571Z,4.14
2023-01-18T09:02:04.882Z,4.37
2023-01-18T09:04:37.134Z,4.51
2023-01-18T09:07:06.789Z,4.75
2023-01-18T09:09:36.133Z,4.91
2023-01-18T09:12:05.466Z,5.15
2023-01-18T09:14:34.845Z,5.29
2023-01-18T09:17:04.161Z,5.26
2023-01-18T09:19:33.481Z,5.38
2023-01-18T09:22:06.466Z,5.32
2023-01-18T09:24:37.037Z,5.28
2023-01-18T09:27:06.491Z,5.28
2023-01-18T09:29:36.047Z,5.33
2023-01-18T09:32:09.069Z,5.34
2023-01-18T09:34:38.459Z,5.54
2023-01-18T09:37:10.478Z,5.51
2023-01-18T09:39:51.065Z,5.66
2023-01-18T09:42:22.116Z,5.62
2023-01-18T09:44:52.161Z,5.81
2023-01-18T09:47:24.324Z,5.84
2023-01-18T09:49:55.126Z,5.88
2023-01-18T09:52:31.332Z,5.92
2023-01-18T09:55:03.810Z,5.95
2023-01-18T09:57:40.360Z,6.13
2023-01-18T10:00:17.239Z,6.15
2023-01-18T10:02:46.585Z,6.12
2023-01-18T10:05:16.518Z,6.09
2023-01-18T10:07:50.237Z,6.09
2023-01-18T10:10:19.750Z,5.98
2023-01-18T10:12:50.201Z,5.92
2023-01-18T10:15:22.292Z,6.06
2023-01-18T10:17:52.471Z,6.00
2023-01-18T10:20:23.202Z,5.98
2023-01-18T10:22:55.938Z,6.05
2023-01-18T10:25:26.808Z,5.84
2023-01-18T10:28:01.434Z,5.74
2023-01-18T10:30:32.992Z,6.01
2023-01-18T10:33:03.109Z,5.99
2023-01-18T10:35:33.734Z,6.06
2023-01-18T10:38:06.657Z,5.82
2023-01-18T10:40:36.022Z,5.88
2023-01-18T10:43:05.435Z,5.81
2023-01-18T10:45:35.131Z,5.89
2023-01-18T10:48:13.277Z,5.82
2023-01-18T10:50:43.062Z,5.98
2023-01-18T10:53:31.599Z,6.22
2023-01-18T10:56:03.093Z,6.33
2023-01-18T10:58:33.560Z,6.67
2023-01-18T11:01:03.868Z,6.75
2023-01-18T11:03:35.427Z,6.61
2023-01-18T11:06:06.128Z,6.57
2023-01-18T11:08:38.458Z,6.69
2023-01-18T11:11:08.553Z,6.76
2023-01-18T11:13:44.139Z,6.74
2023-01-18T11:16:16.001Z,6.49
2023-01-18T11:18:58.562Z,6.52
2023-01-18T11:21:32.934Z,6.62
2023-01-18T11:24:05.464Z,6.57
2023-01-18T11:26:34.998Z,6.78
2023-01-18T11:29:05.208Z,6.86
2023-01-18T11:31:36.328Z,7.07
2023-01-18T11:34:07.839Z,6.96
2023-01-18T11:36:37.830Z,6.79
2023-01-18T11:39:22.227Z,6.76
2023-01-18T11:41:54.266Z,6.64
2023-01-18T11:44:24.904Z,6.86
2023-01-18T11:46:54.866Z,6.71
2023-01-18T11:49:29.309Z,7.08
2023-01-18T11:52:02.201Z,7.37
2023-01-18T11:54:33.558Z,7.55
2023-01-18T11:57:07.722Z,7.40
2023-01-18T11:59:38.000Z,7.36
2023-01-18T12:02:24.838Z,7.22
2023-01-18T12:04:57.654Z,6.96
2023-01-18T12:07:31.562Z,6.97
2023-01-18T12:10:01.295Z,7.05
2023-01-18T12:12:39.806Z,6.97
2023-01-18T12:15:16.603Z,6.81
2023-01-18T12:17:48.826Z,6.80
2023-01-18T12:20:22.993Z,6.79
2023-01-18T12:22:58.775Z,6.60
2023-01-18T12:25:32.637Z,6.59
2023-01-18T12:28:07.549Z,6.56
2023-01-18T12:30:40.943Z,6.63
2023-01-18T12:33:19.264Z,6.77
2023-01-18T12:36:01.480Z,6.95
2023-01-18T12:38:31.197Z,6.82
2023-01-18T12:41:15.369Z,6.72
2023-01-18T12:43:51.393Z,6.53
2023-01-18T12:46:22.594Z,6.64
2023-01-18T12:48:52.705Z,6.54
2023-01-18T12:51:23.976Z,6.71
2023-01-18T12:53:53.848Z,6.81
2023-01-18T12:56:23.606Z,6.82
2023-01-18T12:58:56.638Z,6.84
2023-01-18T13:01:26.917Z,6.56
2023-01-18T13:03:56.980Z,6.49
2023-01-18T13:06:26.373Z,6.52
2023-01-18T13:08:57.497Z,6.48
2023-01-18T13:11:27.325Z,6.49
2023-01-18T13:14:02.230Z,6.59
2023-01-18T13:16:34.834Z,6.71
2023-01-18T13:19:05.642Z,6.70
2023-01-18T13:21:38.974Z,6.66
2023-01-18T13:24:11.460Z,6.69
2023-01-18T13:26:41.802Z,6.61
2023-01-18T13:29:20.022Z,6.65
2023-01-18T13:31:49.452Z,6.70
2023-01-18T13:34:23.163Z,6.65
2023-01-18T13:36:59.753Z,6.63
2023-01-18T13:39:46.160Z,6.84
2023-01-18T13:42:26.787Z,6.95
2023-01-18T13:45:14.161Z,7.09
2023-01-18T13:47:54.864Z,7.24
2023-01-18T13:50:40.229Z,7.30
2023-01-18T13:53:22.841Z,7.29
2023-01-18T13:55:56.301Z,7.31
2023-01-18T13:58:28.859Z,7.26
2023-01-18T14:00:58.929Z,7.24
2023-01-18T14:03:31.778Z,7.21
2023-01-18T14:06:01.946Z,7.05
2023-01-18T14:08:35.956Z,7.23
2023-01-18T14:11:09.405Z,7.33
2023-01-18T14:13:59.447Z,7.24
2023-01-18T14:16:35.343Z,7.20
2023-01-18T14:19:17.541Z,6.96
2023-01-18T14:21:51.352Z,6.83
2023-01-18T14:24:23.381Z,6.82
2023-01-18T14:26:53.143Z,6.94
2023-01-18T14:29:24.100Z,7.00
2023-01-18T14:31:54.674Z,7.03
2023-01-18T14:34:32.867Z,7.02
2023-01-18T14:37:02.689Z,6.98
2023-01-18T14:39:33.452Z,6.72
2023-01-18T14:42:05.729Z,6.77
2023-01-18T14:44:56.413Z,6.93
2023-01-18T14:47:27.304Z,7.09
2023-01-18T14:50:00.373Z,7.37
2023-01-18T14:52:34.854Z,7.58
2023-01-18T14:55:04.546Z,7.65
2023-01-18T14:57:36.985Z,7.78
2023-01-18T15:00:09.883Z,7.88
2023-01-18T15:03:04.108Z,7.87
2023-01-18T15:05:39.061Z,7.94
2023-01-18T15:08:10.656Z,7.68
2023-01-18T15:10:52.146Z,7.57
2023-01-18T15:13:26.747Z,7.49
2023-01-18T15:16:02.480Z,7.44
2023-01-18T15:18:40.314Z,7.39
2023-01-18T15:21:24.084Z,7.28
2023-01-18T15:23:57.101Z,7.27
2023-01-18T15:26:39.749Z,7.24
2023-01-18T15:29:20.422Z,7.20
2023-01-18T15:31:57.267Z,7.18
2023-01-18T15:34:45.561Z,7.21
2023-01-18T15:37:21.953Z,7.15
2023-01-18T15:39:59.829Z,7.09
2023-01-18T15:42:30.029Z,7.01
2023-01-18T15:45:02.973Z,6.90
2023-01-18T15:47:45.134Z,6.80
2023-01-18T15:50:26.736Z,6.66
2023-01-18T15:53:09.367Z,6.60
2023-01-18T15:55:50.937Z,6.52
2023-01-18T15:58:29.753Z,6.45
2023-01-18T16:01:04.057Z,6.38
2023-01-18T16:03:41.835Z,6.33
2023-01-18T16:06:13.900Z,6.23
2023-01-18T16:09:11.552Z,6.13
2023-01-18T16:11:47.423Z,6.01
2023-01-18T16:14:28.535Z,5.90
2023-01-18T16:16:59.642Z,5.81
2023-01-18T16:19:31.759Z,5.77
2023-01-18T16:22:02.088Z,5.71
2023-01-18T16:24:40.534Z,5.65
2023-01-18T16:27:11.440Z,5.58
2023-01-18T16:29:55.421Z,5.52
2023-01-18T16:32:32.122Z,5.43
2023-01-18T16:35:02.161Z,5.36
2023-01-18T16:37:31.747Z,5.37
2023-01-18T16:40:04.047Z,5.36
2023-01-18T16:42:38.571Z,5.34
2023-01-18T16:45:08.927Z,5.31
2023-01-18T16:47:38.399Z,5.23
2023-01-18T16:50:12.926Z,5.20
2023-01-18T16:52:42.299Z,5.20
2023-01-18T16:55:14.674Z,5.15
2023-01-18T16:57:45.306Z,5.13
2023-01-18T17:00:17.897Z,5.11
2023-01-18T17:02:47.262Z,5.11
2023-01-18T17:05:16.962Z,5.04
2023-01-18T17:07:46.473Z,4.99
2023-01-18T17:10:24.083Z,4.95
2023-01-18T17:12:56.471Z,4.92
2023-01-18T17:15:28.558Z,4.92
2023-01-18T17:17:58.091Z,4.84
2023-01-18T17:20:28.358Z,4.85
2023-01-18T17:22:58.886Z,4.85
2023-01-18T17:25:31.375Z,4.78
2023-01-18T17:28:01.065Z,4.74
2023-01-18T17:30:30.796Z,4.71
2023-01-18T17:33:00.742Z,4.66
2023-01-18T17:35:32.113Z,4.62
2023-01-18T17:38:06.573Z,4.56
2023-01-18T17:40:46.246Z,4.50
2023-01-18T17:43:34.810Z,4.45
2023-01-18T17:46:05.293Z,4.39
2023-01-18T17:48:34.807Z,4.35
2023-01-18T17:51:04.370Z,4.38
2023-01-18T17:53:33.749Z,4.39
2023-01-18T17:56:05.790Z,4.38
2023-01-18T17:58:35.066Z,4.34
2023-01-18T18:01:07.498Z,4.30
2023-01-18T18:03:36.957Z,4.31
2023-01-18T18:06:06.598Z,4.29
2023-01-18T18:08:36.123Z,4.26
2023-01-18T18:11:08.663Z,4.25
2023-01-18T18:13:38.195Z,4.24
2023-01-18T18:16:11.714Z,4.21
2023-01-18T18:18:43.413Z,4.20
2023-01-18T18:21:12.799Z,4.19
2023-01-18T18:23:42.121Z,4.13
2023-01-18T18:26:14.075Z,4.14
2023-01-18T18:28:43.399Z,4.12
2023-01-18T18:31:16.399Z,4.06
2023-01-18T18:33:45.775Z,4.10
2023-01-18T18:36:15.099Z,4.09
2023-01-18T18:38:44.374Z,4.08
2023-01-18T18:41:16.834Z,4.04
2023-01-18T18:43:46.109Z,3.98
2023-01-18T18:46:15.613Z,3.92
2023-01-18T18:48:48.205Z,3.88
2023-01-18T18:51:20.083Z,3.83
2023-01-18T18:53:52.442Z,3.81
2023-01-18T18:56:27.505Z,3.77
2023-01-18T18:58:57.117Z,3.72
2023-01-18T19:01:27.294Z,3.68
2023-01-18T19:03:56.748Z,3.57
2023-01-18T19:06:26.171Z,3.57
2023-01-18T19:08:55.896Z,3.59
2023-01-18T19:11:27.797Z,3.57
2023-01-18T19:13:57.109Z,3.57
2023-01-18T19:16:26.739Z,3.53
2023-01-18T19:18:56.078Z,3.45
2023-01-18T19:21:25.824Z,3.42
2023-01-18T19:23:55.147Z,3.36
2023-01-18T19:26:24.451Z,3.29
2023-01-18T19:28:56.355Z,3.26
2023-01-18T19:31:25.707Z,3.24
2023-01-18T19:33:56.920Z,3.26
2023-01-18T19:36:26.546Z,3.27
2023-01-18T19:38:59.846Z,3.19
2023-01-18T19:41:30.604Z,3.21
2023-01-18T19:44:02.784Z,3.21
2023-01-18T19:46:34.248Z,3.16
2023-01-18T19:49:03.531Z,3.09
2023-01-18T19:51:37.321Z,2.96
2023-01-18T19:54:06.972Z,2.95
2023-01-18T19:56:36.295Z,2.90
2023-01-18T19:59:10.470Z,2.90
2023-01-18T20:01:39.864Z,2.95
2023-01-18T20:04:09.365Z,2.91
2023-01-18T20:06:40.869Z,2.87
2023-01-18T20:09:19.127Z,2.80
2023-01-18T20:11:49.729Z,2.73
2023-01-18T20:14:24.350Z,2.59
2023-01-18T20:16:53.697Z,2.47
2023-01-18T20:19:23.042Z,2.45
2023-01-18T20:21:52.377Z,2.48
2023-01-18T20:24:21.738Z,2.53
2023-01-18T20:26:51.086Z,2.56
2023-01-18T20:29:23.034Z,2.62
2023-01-18T20:31:53.562Z,2.67
2023-01-18T20:34:22.917Z,2.73
2023-01-18T20:36:52.626Z,2.78
2023-01-18T20:39:21.970Z,2.82
2023-01-18T20:41:51.810Z,2.79
2023-01-18T20:44:24.852Z,2.77
2023-01-18T20:46:55.207Z,2.80
2023-01-18T20:49:33.172Z,2.78
2023-01-18T20:52:07.091Z,2.78
2023-01-18T20:54:36.779Z,2.73
2023-01-18T20:57:06.562Z,2.75
2023-01-18T20:59:38.715Z,2.71
2023-01-18T21:02:08.149Z,2.64
2023-01-18T21:04:37.656Z,2.63
2023-01-18T21:07:06.938Z,2.59
2023-01-18T21:09:36.289Z,2.52
2023-01-18T21:12:05.555Z,2.48
2023-01-18T21:14:34.833Z,2.48
2023-01-18T21:17:06.775Z,2.51
2023-01-18T21:19:36.070Z,2.54
2023-01-18T21:22:05.367Z,2.53
2023-01-18T21:24:34.770Z,2.54
2023-01-18T21:27:04.058Z,2.51
2023-01-18T21:29:33.387Z,2.51
2023-01-18T21:32:02.711Z,2.42
2023-01-18T21:34:34.769Z,2.34
2023-01-18T21:37:04.040Z,2.32
2023-01-18T21:39:33.463Z,2.34
2023-01-18T21:42:15.319Z,2.35
2023-01-18T21:44:57.096Z,2.34
2023-01-18T21:47:26.395Z,2.30
2023-01-18T21:50:17.460Z,2.31
2023-01-18T21:52:59.753Z,2.30
2023-01-18T21:55:29.103Z,2.35
2023-01-18T21:58:13.595Z,2.33
2023-01-18T22:00:43.298Z,2.28
2023-01-18T22:03:13.190Z,2.28
2023-01-18T22:05:45.116Z,2.28
2023-01-18T22:08:14.418Z,2.24
2023-01-18T22:10:43.783Z,2.23
2023-01-18T22:13:13.095Z,2.26
2023-01-18T22:15:42.496Z,2.30
2023-01-18T22:18:11.818Z,2.32
2023-01-18T22:20:41.203Z,2.29
2023-01-18T22:23:13.197Z,2.18
2023-01-18T22:25:42.704Z,2.14
2023-01-18T22:28:12.938Z,2.07
2023-01-18T22:30:42.304Z,2.03
2023-01-18T22:33:11.671Z,2.08
2023-01-18T22:35:40.969Z,2.10
2023-01-18T22:38:13.086Z,2.13
2023-01-18T22:40:42.483Z,2.17
2023-01-18T22:43:11.822Z,2.27
2023-01-18T22:45:41.192Z,2.24
2023-01-18T22:48:10.489Z,2.23
2023-01-18T22:50:39.999Z,2.25
2023-01-18T22:53:09.414Z,2.23
2023-01-18T22:55:41.346Z,2.24
2023-01-18T22:58:10.759Z,2.22
2023-01-18T23:00:40.107Z,2.17
2023-01-18T23:03:09.473Z,2.13
2023-01-18T23:05:38.924Z,2.11
2023-01-18T23:08:08.555Z,2.10
2023-01-18T23:10:37.907Z,2.14
2023-01-18T23:13:09.821Z,2.17
2023-01-18T23:15:56.436Z,2.13
2023-01-18T23:18:25.791Z,2.21
2023-01-18T23:20:58.692Z,2.24
2023-01-18T23:23:28.068Z,2.28
2023-01-18T23:25:57.624Z,2.25
2023-01-18T23:28:41.548Z,2.26
2023-01-18T23:31:11.076Z,2.35
2023-01-18T23:33:40.486Z,2.33
2023-01-18T23:36:10.623Z,2.29
2023-01-18T23:38:52.412Z,2.32
2023-01-18T23:41:34.212Z,2.23
2023-01-18T23:44:18.760Z,2.23
2023-01-18T23:47:00.560Z,2.25
2023-01-18T23:49:42.286Z,2.29
2023-01-18T23:52:24.027Z,2.30
2023-01-18T23:54:53.384Z,2.27
2023-01-18T23:57:22.739Z,2.21
2023-01-18T23:59:54.793Z,2.21
